createdAt,value
2019-04-20T00:00:54.686Z,7.83
2019-04-20T00:05:55.182Z,7.60
2019-04-20T00:11:05.787Z,8.97
2019-04-20T00:16:02.038Z,9.00
2019-04-20T00:21:12.631Z,8.10
2019-04-20T00:26:27.402Z,8.60
2019-04-20T00:31:39.306Z,9.13
2019-04-20T00:36:26.279Z,7.57
2019-04-20T00:41:28.043Z,8.50
2019-04-20T00:46:41.205Z,7.77
2019-04-20T00:51:52.590Z,8.93
2019-04-20T00:56:37.068Z,8.93
2019-04-20T01:02:02.038Z,9.03
2019-04-20T01:07:15.481Z,8.03
2019-04-20T01:12:13.625Z,9.30
2019-04-20T01:17:12.213Z,7.83
2019-04-20T01:22:18.476Z,8.73
2019-04-20T01:27:27.394Z,9.17
2019-04-20T01:32:26.663Z,8.03
2019-04-20T01:37:34.287Z,8.20
2019-04-20T01:42:25.427Z,7.60
2019-04-20T01:47:32.083Z,8.50
2019-04-20T01:52:45.805Z,7.73
2019-04-20T01:57:54.933Z,8.00
2019-04-20T02:02:48.824Z,7.97
2019-04-20T02:07:49.368Z,7.60
2019-04-20T02:12:53.058Z,7.27
2019-04-20T02:18:03.663Z,8.33
2019-04-20T02:23:07.711Z,8.03
2019-04-20T02:28:16.318Z,7.73
2019-04-20T02:33:44.935Z,8.10
2019-04-20T02:39:00.171Z,8.57
2019-04-20T02:48:50.464Z,8.07
2019-04-20T02:59:15.074Z,8.33
2019-04-20T03:03:32.410Z,7.83
2019-04-20T03:08:47.952Z,7.27
2019-04-20T03:13:50.202Z,7.80
2019-04-20T03:18:44.592Z,8.20
2019-04-20T03:24:03.953Z,7.87
2019-04-20T03:29:09.134Z,9.90
2019-04-20T03:34:38.413Z,8.77
2019-04-20T03:39:13.856Z,8.17
2019-04-20T03:44:04.191Z,7.73
2019-04-20T03:49:20.270Z,8.13
2019-04-20T03:54:39.450Z,9.10
2019-04-20T03:59:54.855Z,9.03
2019-04-20T04:04:59.016Z,9.37
2019-04-20T04:09:58.641Z,8.67
2019-04-20T04:14:47.362Z,9.53
2019-04-20T04:19:55.784Z,8.40
2019-04-20T04:25:03.723Z,9.03
2019-04-20T04:30:11.973Z,8.90
2019-04-20T04:35:09.180Z,7.87
2019-04-20T04:40:25.115Z,8.60
2019-04-20T04:45:07.711Z,9.77
2019-04-20T04:50:11.564Z,9.67
2019-04-20T04:55:22.410Z,7.93
2019-04-20T05:00:19.992Z,9.43
2019-04-20T05:05:35.972Z,9.00
2019-04-20T05:10:20.811Z,9.57
2019-04-20T05:15:38.962Z,9.10
2019-04-20T05:20:46.929Z,11.93
2019-04-20T05:26:05.142Z,10.40
2019-04-20T05:30:45.583Z,10.73
2019-04-20T05:36:01.136Z,9.83
2019-04-20T05:41:01.674Z,10.13
2019-04-20T05:46:04.207Z,8.53
2019-04-20T05:51:12.766Z,10.63
2019-04-20T05:56:09.842Z,9.10
2019-04-20T06:01:22.829Z,9.93
2019-04-20T06:06:15.123Z,10.20
2019-04-20T06:11:24.151Z,8.90
2019-04-20T06:16:40.898Z,9.73
2019-04-20T06:21:41.215Z,9.63
2019-04-20T06:26:54.122Z,10.40
2019-04-20T06:31:51.795Z,12.13
2019-04-20T06:47:08.895Z,9.20
2019-04-20T06:52:20.051Z,9.37
2019-04-20T06:57:19.609Z,10.30
2019-04-20T07:07:28.007Z,10.53
2019-04-20T07:12:24.121Z,9.87
2019-04-20T07:18:06.481Z,10.73
2019-04-20T07:23:18.130Z,9.93
2019-04-20T07:28:12.902Z,10.50
2019-04-20T07:33:10.485Z,9.70
2019-04-20T07:38:24.401Z,11.57
2019-04-20T07:43:17.152Z,11.13
2019-04-20T07:48:30.832Z,8.87
2019-04-20T07:53:18.492Z,10.50
2019-04-20T07:58:15.889Z,9.63
2019-04-20T08:03:33.571Z,10.43
2019-04-20T08:08:28.178Z,9.60
2019-04-20T08:13:40.330Z,11.60
2019-04-20T08:18:39.975Z,10.13
2019-04-20T08:23:40.368Z,11.63
2019-04-20T08:28:35.948Z,12.27
2019-04-20T08:34:02.848Z,11.97
2019-04-20T08:44:04.123Z,11.57
2019-04-20T08:49:03.402Z,12.43
2019-04-20T08:53:56.384Z,10.47
2019-04-20T08:58:44.123Z,10.70
2019-04-20T09:03:59.927Z,9.27
2019-04-20T09:09:07.642Z,9.43
2019-04-20T09:13:57.165Z,9.67
2019-04-20T09:18:59.904Z,8.67
2019-04-20T09:24:21.721Z,9.47
2019-04-20T09:29:12.683Z,11.73
2019-04-20T09:34:33.738Z,9.77
2019-04-20T09:39:51.380Z,10.40
2019-04-20T09:44:43.854Z,9.47
2019-04-20T09:49:51.901Z,8.73
2019-04-20T09:54:59.318Z,8.53
2019-04-20T10:00:01.750Z,9.73
2019-04-20T10:04:47.501Z,9.90
2019-04-20T10:09:50.663Z,8.47
2019-04-20T10:14:53.202Z,9.20
2019-04-20T10:19:55.684Z,9.97
2019-04-20T10:24:57.944Z,7.33
2019-04-20T10:30:03.809Z,8.80
2019-04-20T10:35:04.518Z,9.90
2019-04-20T10:40:06.808Z,9.20
2019-04-20T10:45:10.570Z,8.57
2019-04-20T10:50:13.240Z,8.93
2019-04-20T10:55:14.807Z,8.23
2019-04-20T11:00:19.709Z,8.80
2019-04-20T11:05:22.399Z,8.40
2019-04-20T11:10:28.795Z,7.70
2019-04-20T11:15:28.204Z,8.40
2019-04-20T11:20:31.017Z,7.47
2019-04-20T11:25:32.488Z,9.03
2019-04-20T11:30:36.168Z,7.57
2019-04-20T11:35:41.282Z,9.43
2019-04-20T11:40:41.187Z,8.03
2019-04-20T11:45:43.116Z,8.30
2019-04-20T11:50:45.740Z,7.70
2019-04-20T11:55:48.758Z,8.57
2019-04-20T12:00:59.448Z,7.27
2019-04-20T12:05:57.905Z,6.63
2019-04-20T12:11:00.297Z,11.83
2019-04-20T12:15:59.736Z,6.73
2019-04-20T12:21:03.000Z,8.03
2019-04-20T12:26:06.492Z,5.60
2019-04-20T12:31:12.498Z,7.07
2019-04-20T12:36:10.604Z,7.33
2019-04-20T12:41:14.493Z,6.23
2019-04-20T12:46:18.291Z,6.40
2019-04-20T12:51:19.655Z,8.87
2019-04-20T12:56:22.425Z,7.23
2019-04-20T13:01:25.865Z,8.20
2019-04-20T13:06:27.989Z,7.83
2019-04-20T13:11:44.156Z,6.90
2019-04-20T13:16:38.658Z,20.20
2019-04-20T13:21:40.991Z,7.03
2019-04-20T13:26:43.047Z,5.97
2019-04-20T13:31:48.219Z,6.10
2019-04-20T13:36:48.447Z,6.90
2019-04-20T13:42:02.131Z,8.10
2019-04-20T13:46:54.684Z,5.70
2019-04-20T13:51:57.069Z,6.00
2019-04-20T13:56:59.631Z,5.43
2019-04-20T14:02:12.979Z,5.57
2019-04-20T14:07:15.934Z,6.80
2019-04-20T14:12:25.118Z,6.77
2019-04-20T14:17:21.263Z,5.80
2019-04-20T14:22:23.180Z,7.70
2019-04-20T14:27:26.685Z,6.90
2019-04-20T14:32:29.145Z,6.47
2019-04-20T14:37:31.020Z,5.33
2019-04-20T14:42:40.333Z,6.63
2019-04-20T14:47:36.474Z,7.10
2019-04-20T14:52:39.689Z,5.73
2019-04-20T14:57:41.847Z,7.33
2019-04-20T15:02:45.801Z,7.60
2019-04-20T15:07:47.158Z,6.07
2019-04-20T15:12:55.712Z,5.50
2019-04-20T15:17:59.820Z,6.93
2019-04-20T15:23:07.636Z,6.40
2019-04-20T15:28:10.446Z,4.73
2019-04-20T15:33:12.687Z,5.27
2019-04-20T15:38:15.392Z,6.10
2019-04-20T15:43:20.906Z,5.87
2019-04-20T15:48:21.991Z,4.90
2019-04-20T15:53:25.602Z,5.73
2019-04-20T15:58:28.184Z,6.43
2019-04-20T16:03:37.309Z,5.27
2019-04-20T16:08:42.166Z,9.00
2019-04-20T16:13:49.450Z,6.87
2019-04-20T16:18:46.967Z,3.80
2019-04-20T16:23:58.823Z,7.70
2019-04-20T16:29:01.711Z,5.90
2019-04-20T16:34:03.369Z,4.80
2019-04-20T16:39:09.032Z,6.47
2019-04-20T16:44:09.326Z,5.63
2019-04-20T16:49:12.780Z,5.67
2019-04-20T16:54:14.600Z,5.13
2019-04-20T16:59:17.868Z,6.10
2019-04-20T17:04:22.546Z,4.50
2019-04-20T17:09:24.058Z,4.40
2019-04-20T17:14:25.650Z,5.53
2019-04-20T17:19:27.944Z,13.37
2019-04-20T17:24:31.353Z,17.97
2019-04-20T17:29:40.474Z,11.57
2019-04-20T17:34:56.207Z,11.27
2019-04-20T17:40:07.838Z,6.57
2019-04-20T17:44:56.420Z,5.20
2019-04-20T17:50:05.254Z,7.10
2019-04-20T17:54:53.496Z,7.27
2019-04-20T18:00:03.520Z,6.90
2019-04-20T18:05:32.775Z,8.17
2019-04-20T18:10:31.219Z,8.77
2019-04-20T18:15:40.403Z,7.47
2019-04-20T18:20:23.266Z,9.17
2019-04-20T18:25:54.952Z,7.00
2019-04-20T18:30:43.702Z,9.83
2019-04-20T18:35:42.162Z,11.30
2019-04-20T18:40:49.301Z,8.43
2019-04-20T18:46:05.400Z,7.50
2019-04-20T18:50:47.039Z,7.30
2019-04-20T18:55:53.201Z,7.10
2019-04-20T19:00:51.787Z,8.97
2019-04-20T19:05:52.129Z,8.77
2019-04-20T19:11:01.545Z,6.90
2019-04-20T19:16:18.910Z,9.03
2019-04-20T19:21:08.949Z,7.57
2019-04-20T19:26:16.110Z,8.47
2019-04-20T19:31:32.782Z,6.50
2019-04-20T19:36:27.594Z,6.27
2019-04-20T19:41:32.008Z,6.17
2019-04-20T19:46:49.346Z,7.60
2019-04-20T19:51:46.729Z,8.53
2019-04-20T19:56:41.461Z,5.10
2019-04-20T20:01:31.686Z,5.87
2019-04-20T20:06:39.167Z,8.33
2019-04-20T20:11:40.579Z,7.00
2019-04-20T20:17:01.622Z,7.43
2019-04-20T20:21:58.124Z,6.57
2019-04-20T20:26:51.055Z,6.40
2019-04-20T20:31:57.773Z,5.67
2019-04-20T20:36:57.146Z,7.27
2019-04-20T20:42:01.347Z,6.00
2019-04-20T20:47:05.566Z,6.40
2019-04-20T20:52:17.301Z,8.10
2019-04-20T20:57:07.398Z,7.30
2019-04-20T21:02:12.693Z,6.83
2019-04-20T21:07:06.768Z,11.20
2019-04-20T21:12:14.925Z,10.87
2019-04-20T21:17:17.843Z,8.00
2019-04-20T21:22:25.880Z,8.50
2019-04-20T21:27:21.507Z,9.00
2019-04-20T21:32:22.015Z,8.30
2019-04-20T21:37:25.592Z,7.77
2019-04-20T21:42:28.138Z,6.83
2019-04-20T21:47:33.820Z,8.87
2019-04-20T21:52:39.252Z,10.67
2019-04-20T21:57:42.150Z,13.13
2019-04-20T22:02:43.748Z,14.30
2019-04-20T22:07:38.649Z,13.60
2019-04-20T22:12:48.604Z,12.97
2019-04-20T22:17:44.108Z,15.43
2019-04-20T22:22:59.455Z,15.10
2019-04-20T22:27:50.411Z,12.23
2019-04-20T22:32:53.706Z,10.97
2019-04-20T22:38:08.494Z,12.93
2019-04-20T22:43:04.177Z,13.10
2019-04-20T22:48:09.091Z,13.50
2019-04-20T22:53:24.990Z,13.00
2019-04-20T22:58:27.486Z,10.23
2019-04-20T23:03:14.700Z,18.80
2019-04-20T23:08:17.098Z,23.50
2019-04-20T23:13:22.089Z,18.53
2019-04-20T23:18:22.434Z,15.07
2019-04-20T23:23:28.854Z,11.50
2019-04-20T23:28:27.417Z,11.20
2019-04-20T23:33:30.009Z,11.07
2019-04-20T23:38:32.739Z,11.17
2019-04-20T23:43:41.384Z,7.90
2019-04-20T23:48:50.546Z,8.57
2019-04-20T23:54:03.035Z,9.03
2019-04-20T23:58:58.036Z,10.23
